Time;durP1;ratioP1;P1;durP2;ratioP2;P2;SDS_P1;SDS_P2;PMS_P1;PMS_P2;Temp;Humidity;BMP_temperature;BMP_pressure;BME280_temperature;BME280_humidity;BME280_pressure;Samples;Min_cycle;Max_cycle;Signal;HPM_P1;HPM_P2
2021/12/10 00:00:37;;;;;;;39.10;16.20;;;5.20;99.90;;;;;;5090662;28;20704;-77
2021/12/10 00:03:07;;;;;;;38.67;15.33;;;5.10;99.90;;;;;;5083620;28;20678;-77
2021/12/10 00:05:43;;;;;;;33.07;14.57;;;5.10;99.90;;;;;;5085900;28;20289;-77
2021/12/10 00:08:10;;;;;;;38.90;16.43;;;5.10;99.90;;;;;;5085206;28;20211;-78
2021/12/10 00:10:45;;;;;;;28.00;15.10;;;5.10;99.90;;;;;;5067931;28;20258;-78
2021/12/10 00:13:13;;;;;;;36.13;15.40;;;5.00;99.90;;;;;;5084948;28;20693;-78
2021/12/10 00:15:41;;;;;;;34.27;16.53;;;5.00;99.90;;;;;;5081650;28;20334;-77
2021/12/10 00:18:13;;;;;;;40.10;14.63;;;5.00;99.90;;;;;;5089068;28;20217;-78
2021/12/10 00:20:41;;;;;;;30.43;14.97;;;5.00;99.90;;;;;;5080996;28;20386;-77
2021/12/10 00:23:17;;;;;;;37.63;15.57;;;5.00;99.90;;;;;;5070968;28;20266;-78
2021/12/10 00:25:49;;;;;;;32.97;16.13;;;5.00;99.90;;;;;;5087298;28;20299;-78
2021/12/10 00:28:23;;;;;;;44.17;15.60;;;5.00;99.90;;;;;;5090216;28;20291;-79
2021/12/10 00:31:51;;;;;;;26.57;14.73;;;4.90;99.90;;;;;;5071178;28;20218;-76
2021/12/10 00:34:00;;;;;;;35.87;15.80;;;4.90;99.90;;;;;;5068838;28;20310;-78
2021/12/10 00:36:27;;;;;;;35.20;14.90;;;4.80;99.90;;;;;;5075891;28;20525;-78
2021/12/10 00:38:55;;;;;;;29.70;14.07;;;4.80;99.90;;;;;;5083427;28;20210;-78
2021/12/10 00:41:24;;;;;;;31.27;15.37;;;4.70;99.90;;;;;;5076366;28;20644;-78
2021/12/10 00:43:51;;;;;;;38.83;16.23;;;4.70;99.90;;;;;;5081909;28;20215;-78
2021/12/10 00:46:18;;;;;;;30.40;14.63;;;4.60;99.90;;;;;;5063975;28;20670;-78
2021/12/10 00:48:45;;;;;;;38.83;16.77;;;4.60;99.90;;;;;;5090135;28;20223;-78
2021/12/10 00:51:13;;;;;;;35.63;16.37;;;4.60;99.90;;;;;;5088959;28;20262;-78
2021/12/10 00:53:41;;;;;;;33.30;16.37;;;4.60;99.90;;;;;;5071359;28;20206;-78
2021/12/10 00:56:09;;;;;;;35.10;17.27;;;4.50;99.90;;;;;;5083753;28;20307;-78
2021/12/10 00:58:37;;;;;;;40.53;17.67;;;4.50;99.90;;;;;;5082707;28;20211;-79
2021/12/10 01:01:08;;;;;;;35.77;16.57;;;4.50;99.90;;;;;;5088710;28;20675;-79
2021/12/10 01:03:39;;;;;;;36.10;16.43;;;4.50;99.90;;;;;;5084331;28;20253;-77
2021/12/10 01:06:09;;;;;;;29.87;15.13;;;4.50;99.90;;;;;;5089780;28;20285;-78
2021/12/10 01:08:38;;;;;;;33.97;15.87;;;4.40;99.90;;;;;;5077049;28;20227;-77
2021/12/10 01:11:26;;;;;;;31.90;16.03;;;4.40;99.90;;;;;;5092882;28;20216;-78
2021/12/10 01:14:00;;;;;;;33.97;15.17;;;4.30;99.90;;;;;;5099051;28;20329;-77
2021/12/10 01:25:26;;;;;;;38.47;16.80;;;4.40;99.90;;;;;;5080456;28;20284;-77
2021/12/10 01:27:31;;;;;;;37.53;17.10;;;4.40;99.90;;;;;;5086580;28;20555;-77
2021/12/10 01:30:06;;;;;;;39.87;16.90;;;4.40;99.90;;;;;;5096222;28;20254;-78
2021/12/10 01:32:36;;;;;;;39.77;17.20;;;4.40;99.90;;;;;;5102149;28;20229;-78
2021/12/10 01:35:06;;;;;;;35.90;16.30;;;4.50;99.90;;;;;;5097286;28;20235;-77
2021/12/10 01:37:33;;;;;;;37.90;16.27;;;4.50;99.90;;;;;;5084941;28;20603;-78
2021/12/10 01:40:00;;;;;;;37.60;16.13;;;4.50;99.90;;;;;;5071492;28;20246;-77
2021/12/10 01:44:57;;;;;;;28.03;16.40;;;4.50;99.90;;;;;;5083288;28;20195;-77
2021/12/10 01:47:29;;;;;;;34.43;16.00;;;4.50;99.90;;;;;;5087972;28;20310;-77
2021/12/10 01:49:57;;;;;;;32.93;16.03;;;4.50;99.90;;;;;;5088451;28;20221;-78
2021/12/10 01:52:24;;;;;;;31.43;16.97;;;4.50;99.90;;;;;;5088455;28;20764;-78
2021/12/10 01:54:55;;;;;;;34.97;16.30;;;4.50;99.90;;;;;;5083177;28;20726;-77
2021/12/10 01:57:27;;;;;;;33.67;15.27;;;4.50;99.90;;;;;;5084794;28;20234;-77
2021/12/10 01:59:56;;;;;;;34.40;15.47;;;4.50;99.90;;;;;;5088819;28;20234;-78
2021/12/10 02:02:26;;;;;;;29.50;14.80;;;4.60;99.90;;;;;;5084541;28;20311;-77
2021/12/10 02:04:53;;;;;;;30.83;15.83;;;4.60;99.90;;;;;;5084087;28;20210;-77
2021/12/10 02:07:24;;;;;;;29.63;13.70;;;4.60;99.90;;;;;;5088524;28;20238;-77
2021/12/10 02:09:52;;;;;;;31.87;15.60;;;4.60;99.90;;;;;;5059495;28;20371;-78
2021/12/10 02:12:20;;;;;;;27.17;14.00;;;4.60;99.90;;;;;;5081856;28;20661;-78
2021/12/10 02:14:57;;;;;;;26.70;14.40;;;4.60;99.90;;;;;;5086760;28;20204;-77
2021/12/10 02:17:26;;;;;;;28.00;13.23;;;4.60;99.90;;;;;;5068691;28;20625;-78
2021/12/10 02:19:53;;;;;;;29.57;14.23;;;4.60;99.90;;;;;;5088918;28;20253;-77
2021/12/10 02:22:19;;;;;;;29.37;13.77;;;4.60;99.90;;;;;;5089903;28;20237;-77
2021/12/10 02:24:46;;;;;;;29.80;14.03;;;4.60;99.90;;;;;;5087865;28;20202;-75
2021/12/10 02:27:13;;;;;;;24.63;13.53;;;4.60;99.90;;;;;;5084874;28;20286;-78
2021/12/10 02:29:41;;;;;;;32.73;13.27;;;4.60;99.90;;;;;;5099821;28;20271;-77
2021/12/10 02:32:10;;;;;;;20.00;11.73;;;4.50;99.90;;;;;;5095525;28;20306;-78
2021/12/10 02:34:37;;;;;;;26.87;12.50;;;4.50;99.90;;;;;;5096738;28;20228;-78
2021/12/10 02:37:05;;;;;;;26.10;13.13;;;4.50;99.90;;;;;;5103240;28;20208;-77
2021/12/10 02:39:32;;;;;;;23.50;12.30;;;4.40;99.90;;;;;;5101933;28;20294;-77
2021/12/10 02:41:58;;;;;;;23.57;12.40;;;4.30;99.90;;;;;;5103260;28;20699;-78
2021/12/10 02:44:28;;;;;;;28.63;12.13;;;4.30;99.90;;;;;;5085002;28;20235;-77
2021/12/10 02:46:55;;;;;;;25.80;11.97;;;4.20;99.90;;;;;;5092238;28;20266;-77
2021/12/10 02:49:23;;;;;;;21.87;11.70;;;4.10;99.90;;;;;;5090939;28;20206;-77
2021/12/10 02:51:49;;;;;;;24.43;11.83;;;4.00;99.90;;;;;;5089610;28;20324;-77
2021/12/10 02:54:22;;;;;;;23.90;12.73;;;4.00;99.90;;;;;;5071144;28;20300;-77
2021/12/10 02:56:50;;;;;;;24.43;10.73;;;3.90;99.90;;;;;;5088299;28;20412;-78
2021/12/10 02:59:18;;;;;;;28.43;11.53;;;3.90;99.90;;;;;;5088287;28;20237;-77
2021/12/10 03:01:49;;;;;;;21.17;11.03;;;3.80;99.90;;;;;;5087477;28;20703;-77
2021/12/10 03:04:16;;;;;;;25.43;11.17;;;3.80;99.90;;;;;;5088461;28;20737;-76
2021/12/10 03:06:50;;;;;;;24.87;11.90;;;3.70;99.90;;;;;;5090541;28;20292;-77
2021/12/10 03:09:19;;;;;;;23.40;11.10;;;3.60;99.90;;;;;;5092456;28;20265;-77
2021/12/10 03:11:48;;;;;;;20.23;11.37;;;3.60;99.90;;;;;;5087274;28;20714;-78
2021/12/10 03:14:18;;;;;;;20.73;10.33;;;3.50;99.90;;;;;;5092638;28;20861;-78
2021/12/10 03:16:48;;;;;;;24.83;11.10;;;3.40;99.90;;;;;;5090359;28;20309;-77
2021/12/10 03:19:16;;;;;;;24.37;11.60;;;3.40;99.90;;;;;;5092781;28;20253;-78
2021/12/10 03:21:44;;;;;;;26.70;11.60;;;3.30;99.90;;;;;;5090673;28;20209;-77
2021/12/10 03:24:17;;;;;;;18.67;10.20;;;3.30;99.90;;;;;;5072042;28;20240;-78
2021/12/10 03:26:45;;;;;;;25.33;10.47;;;3.20;99.90;;;;;;5080531;28;20202;-78
2021/12/10 03:29:12;;;;;;;23.13;11.37;;;3.10;99.90;;;;;;5091303;28;20211;-78
2021/12/10 03:31:39;;;;;;;27.57;11.00;;;3.10;99.90;;;;;;5091291;28;20628;-78
2021/12/10 03:34:07;;;;;;;22.90;10.67;;;3.00;99.90;;;;;;5090354;28;20243;-77
2021/12/10 03:36:34;;;;;;;21.50;10.67;;;3.00;99.90;;;;;;5069805;28;20211;-76
2021/12/10 03:39:04;;;;;;;22.00;10.63;;;3.00;99.90;;;;;;5091745;28;20219;-77
2021/12/10 03:41:31;;;;;;;22.47;11.33;;;2.90;99.90;;;;;;5085164;28;20215;-77
2021/12/10 03:43:58;;;;;;;27.23;11.97;;;2.90;99.90;;;;;;5086871;28;20213;-77
2021/12/10 03:46:24;;;;;;;25.30;11.33;;;2.90;99.90;;;;;;5080809;28;20206;-77
2021/12/10 03:48:52;;;;;;;20.70;10.67;;;2.80;99.90;;;;;;5084658;28;20220;-78
2021/12/10 03:51:24;;;;;;;21.73;11.50;;;2.80;99.90;;;;;;5086274;28;20202;-77
2021/12/10 03:53:51;;;;;;;28.57;12.33;;;2.80;99.90;;;;;;5091097;28;20205;-77
2021/12/10 03:56:21;;;;;;;25.60;11.40;;;2.80;99.90;;;;;;5085315;28;20226;-77
2021/12/10 03:58:49;;;;;;;25.33;11.30;;;2.80;99.90;;;;;;5073041;28;20278;-79
2021/12/10 04:01:20;;;;;;;25.00;11.50;;;2.70;99.90;;;;;;5072335;28;20280;-77
2021/12/10 04:03:49;;;;;;;24.93;10.97;;;2.70;99.90;;;;;;5090569;28;20270;-79
2021/12/10 04:06:17;;;;;;;29.70;12.63;;;2.70;99.90;;;;;;5084237;28;20216;-77
2021/12/10 04:08:44;;;;;;;30.40;11.93;;;2.70;99.90;;;;;;5088706;28;20214;-78
2021/12/10 04:11:15;;;;;;;22.73;11.80;;;2.70;99.90;;;;;;5089404;28;20768;-77
2021/12/10 04:13:47;;;;;;;24.70;11.87;;;2.70;99.90;;;;;;5088615;28;20230;-77
2021/12/10 04:16:17;;;;;;;24.43;11.23;;;2.70;99.90;;;;;;5086922;28;20674;-77
2021/12/10 04:18:49;;;;;;;28.83;11.97;;;2.70;99.90;;;;;;5086131;28;20214;-78
2021/12/10 04:21:20;;;;;;;22.17;11.43;;;2.70;99.90;;;;;;5090844;28;20292;-77
2021/12/10 04:23:47;;;;;;;22.20;10.80;;;2.60;99.90;;;;;;5090029;28;20204;-78
2021/12/10 04:26:17;;;;;;;23.87;10.93;;;2.60;99.90;;;;;;5089478;28;20225;-78
2021/12/10 04:28:44;;;;;;;25.23;11.80;;;2.60;99.90;;;;;;5079112;28;20285;-77
2021/12/10 04:31:12;;;;;;;23.70;11.73;;;2.60;99.90;;;;;;5083007;28;20266;-77
2021/12/10 04:33:40;;;;;;;26.47;11.53;;;2.60;99.90;;;;;;5082142;28;20361;-79
2021/12/10 04:36:08;;;;;;;22.10;11.90;;;2.60;99.90;;;;;;5089808;28;20584;-77
2021/12/10 04:38:35;;;;;;;25.60;12.57;;;2.60;99.90;;;;;;5073562;28;20201;-77
2021/12/10 04:41:05;;;;;;;21.57;11.53;;;2.60;99.90;;;;;;5061874;28;20209;-78
2021/12/10 04:43:38;;;;;;;19.20;11.00;;;2.60;99.90;;;;;;5089176;28;20244;-78
2021/12/10 04:46:05;;;;;;;25.00;12.17;;;2.60;99.90;;;;;;5069433;28;20210;-78
2021/12/10 04:48:45;;;;;;;25.27;11.47;;;2.60;99.90;;;;;;5081379;28;20311;-77
2021/12/10 04:51:12;;;;;;;25.30;11.33;;;2.60;99.90;;;;;;5068482;28;20628;-78
2021/12/10 04:53:39;;;;;;;21.63;11.33;;;2.60;99.90;;;;;;5079567;28;20218;-77
2021/12/10 04:56:06;;;;;;;27.47;11.80;;;2.60;99.90;;;;;;5071608;28;20224;-77
2021/12/10 04:58:33;;;;;;;26.23;11.60;;;2.60;99.90;;;;;;5086572;28;20217;-77
2021/12/10 05:01:02;;;;;;;26.70;11.97;;;2.60;99.90;;;;;;5088252;28;20212;-78
2021/12/10 05:03:30;;;;;;;27.50;11.20;;;2.60;99.90;;;;;;5086729;28;20222;-77
2021/12/10 05:06:02;;;;;;;24.90;11.37;;;2.60;99.90;;;;;;5090045;28;20594;-77
2021/12/10 05:08:33;;;;;;;28.07;12.17;;;2.60;99.90;;;;;;5071358;28;20211;-77
2021/12/10 05:11:03;;;;;;;25.83;12.97;;;2.60;99.90;;;;;;5078949;28;20210;-79
2021/12/10 05:13:30;;;;;;;32.20;13.03;;;2.60;99.90;;;;;;5082808;28;20231;-77
2021/12/10 05:15:58;;;;;;;26.60;11.23;;;2.60;99.90;;;;;;5067952;28;20651;-78
2021/12/10 05:18:33;;;;;;;27.50;12.43;;;2.60;99.90;;;;;;5082624;28;20355;-78
2021/12/10 05:21:00;;;;;;;27.87;12.40;;;2.60;99.90;;;;;;5081700;28;20229;-77
2021/12/10 05:23:26;;;;;;;26.67;12.20;;;2.60;99.90;;;;;;5069344;28;20204;-77
2021/12/10 05:25:54;;;;;;;20.53;11.17;;;2.60;99.90;;;;;;5076294;28;20284;-77
2021/12/10 05:28:21;;;;;;;25.53;11.63;;;2.60;99.90;;;;;;5082013;28;20216;-75
2021/12/10 05:30:49;;;;;;;24.20;11.07;;;2.60;99.90;;;;;;5084875;28;20225;-78
2021/12/10 05:33:18;;;;;;;27.13;11.50;;;2.60;99.90;;;;;;5076687;28;20235;-77
2021/12/10 05:35:47;;;;;;;22.60;11.67;;;2.60;99.90;;;;;;5089766;28;20248;-77
2021/12/10 05:38:17;;;;;;;27.90;10.57;;;2.60;99.90;;;;;;5079715;28;20255;-77
2021/12/10 05:40:46;;;;;;;22.70;10.40;;;2.60;99.90;;;;;;5071685;28;20263;-78
2021/12/10 05:43:13;;;;;;;23.23;10.23;;;2.60;99.90;;;;;;5083194;28;20821;-77
2021/12/10 05:45:42;;;;;;;22.67;9.37;;;2.60;99.90;;;;;;5089012;28;20569;-78
2021/12/10 05:48:09;;;;;;;18.60;8.80;;;2.60;99.90;;;;;;5087026;28;20225;-78
2021/12/10 05:50:36;;;;;;;22.50;9.83;;;2.60;99.90;;;;;;5083619;28;20635;-77
2021/12/10 05:53:04;;;;;;;19.43;9.53;;;2.60;99.90;;;;;;5068909;28;20319;-78
2021/12/10 05:55:31;;;;;;;20.27;9.97;;;2.60;99.90;;;;;;5088190;28;20256;-77
2021/12/10 05:58:00;;;;;;;20.67;9.77;;;2.60;99.90;;;;;;5086130;28;20223;-78
2021/12/10 06:00:31;;;;;;;21.33;8.80;;;2.60;99.90;;;;;;5088049;28;20205;-78
2021/12/10 06:02:58;;;;;;;16.40;9.77;;;2.60;99.90;;;;;;5086905;28;20253;-77
2021/12/10 06:05:27;;;;;;;16.40;8.97;;;2.60;99.90;;;;;;5089010;28;20208;-79
2021/12/10 06:07:54;;;;;;;14.13;8.40;;;2.60;99.90;;;;;;5083463;28;20259;-77
2021/12/10 06:10:22;;;;;;;20.60;8.27;;;2.60;99.90;;;;;;5074129;28;20210;-77
2021/12/10 06:12:50;;;;;;;19.47;8.23;;;2.60;99.90;;;;;;5083856;28;20306;-78
2021/12/10 06:15:20;;;;;;;14.13;6.67;;;2.60;99.90;;;;;;5086444;28;20300;-78
2021/12/10 06:17:47;;;;;;;15.67;6.73;;;2.60;99.90;;;;;;5085440;28;20577;-77
2021/12/10 06:20:22;;;;;;;14.47;7.07;;;2.60;99.90;;;;;;5063655;28;20202;-77
2021/12/10 06:22:50;;;;;;;14.07;6.63;;;2.60;99.90;;;;;;5075155;28;20228;-78
2021/12/10 06:25:17;;;;;;;17.40;7.17;;;2.60;99.90;;;;;;5084415;28;20636;-78
2021/12/10 06:27:44;;;;;;;12.60;7.03;;;2.60;99.90;;;;;;5080972;28;20400;-78
2021/12/10 06:30:15;;;;;;;12.90;5.80;;;2.60;99.90;;;;;;5089244;28;20205;-78
2021/12/10 06:32:44;;;;;;;11.93;6.53;;;2.70;99.90;;;;;;5087464;28;20708;-78
2021/12/10 06:35:13;;;;;;;13.10;6.37;;;2.70;99.90;;;;;;5082978;28;20217;-78
2021/12/10 06:37:41;;;;;;;12.77;6.33;;;2.70;99.90;;;;;;5087253;28;20268;-79
2021/12/10 06:40:12;;;;;;;10.57;5.83;;;2.60;99.90;;;;;;5081182;28;20220;-79
2021/12/10 06:42:39;;;;;;;18.83;6.73;;;2.60;99.90;;;;;;5088689;28;20201;-79
2021/12/10 06:45:09;;;;;;;12.23;5.73;;;2.60;99.90;;;;;;5087823;28;20204;-78
2021/12/10 06:47:36;;;;;;;15.43;5.70;;;2.70;99.90;;;;;;5080175;28;20642;-78
2021/12/10 06:50:05;;;;;;;13.07;5.60;;;2.60;99.90;;;;;;5089772;28;20735;-78
2021/12/10 06:52:32;;;;;;;12.90;5.77;;;2.70;99.90;;;;;;5072374;28;20226;-80
2021/12/10 06:54:59;;;;;;;8.27;5.37;;;2.70;99.90;;;;;;5061891;28;20238;-77
2021/12/10 06:57:26;;;;;;;13.83;5.30;;;2.70;99.90;;;;;;5051090;28;20198;-78
2021/12/10 06:59:53;;;;;;;9.20;5.57;;;2.70;99.90;;;;;;5051732;28;20985;-78
2021/12/10 07:02:20;;;;;;;10.50;5.33;;;2.70;99.90;;;;;;5033268;28;20306;-78
2021/12/10 07:04:47;;;;;;;9.97;4.93;;;2.70;99.90;;;;;;5033670;28;20656;-77
2021/12/10 07:07:14;;;;;;;10.53;5.50;;;2.60;99.90;;;;;;5051654;28;20209;-78
2021/12/10 07:09:41;;;;;;;10.80;6.10;;;2.70;99.90;;;;;;5048982;28;20295;-77
2021/12/10 07:12:08;;;;;;;14.57;5.70;;;2.80;99.90;;;;;;5050589;28;20748;-78
2021/12/10 07:14:35;;;;;;;15.20;5.67;;;2.70;99.90;;;;;;5034240;28;20281;-76
2021/12/10 07:17:07;;;;;;;11.63;5.90;;;2.70;99.90;;;;;;5052166;28;20236;-78
2021/12/10 07:19:34;;;;;;;15.03;5.83;;;2.70;99.90;;;;;;5051632;28;20616;-78
2021/12/10 07:22:01;;;;;;;10.50;5.60;;;2.70;99.90;;;;;;5052029;28;20286;-79
2021/12/10 07:24:27;;;;;;;13.23;6.40;;;2.70;99.90;;;;;;5042160;28;20290;-79
2021/12/10 07:26:55;;;;;;;12.57;5.40;;;2.70;99.90;;;;;;5042927;28;20338;-76
2021/12/10 07:29:22;;;;;;;12.23;5.10;;;2.70;99.90;;;;;;5047265;28;20257;-76
2021/12/10 07:31:49;;;;;;;15.17;5.47;;;2.70;99.90;;;;;;5048662;28;20229;-77
2021/12/10 07:34:15;;;;;;;13.27;5.87;;;2.70;99.90;;;;;;5050517;28;20638;-76
2021/12/10 07:36:42;;;;;;;8.50;5.43;;;2.70;99.90;;;;;;5047820;28;20693;-77
2021/12/10 07:39:10;;;;;;;13.70;6.00;;;2.70;99.90;;;;;;5050179;28;20200;-76
2021/12/10 07:41:40;;;;;;;8.93;5.00;;;2.70;99.90;;;;;;5050423;28;20298;-77
2021/12/10 07:44:09;;;;;;;9.27;4.90;;;2.60;99.90;;;;;;5049488;28;20253;-77
2021/12/10 07:46:36;;;;;;;6.30;4.47;;;2.70;99.90;;;;;;5027346;28;20241;-77
2021/12/10 07:49:07;;;;;;;12.90;5.70;;;2.70;99.90;;;;;;5028222;28;20220;-78
2021/12/10 07:51:34;;;;;;;13.83;5.07;;;2.60;99.90;;;;;;5049184;28;20209;-77
2021/12/10 07:54:02;;;;;;;10.17;4.90;;;2.60;99.90;;;;;;5046257;28;20237;-75
2021/12/10 07:56:31;;;;;;;12.53;6.00;;;2.60;99.90;;;;;;5067969;28;20228;-76
2021/12/10 07:58:58;;;;;;;10.47;5.10;;;2.60;99.90;;;;;;5059301;28;20284;-77
2021/12/10 08:01:28;;;;;;;13.03;4.90;;;2.60;99.90;;;;;;5061830;28;20288;-78
2021/12/10 08:03:57;;;;;;;12.80;5.17;;;2.60;99.90;;;;;;5048058;28;20213;-76
2021/12/10 08:06:26;;;;;;;15.57;5.10;;;2.60;99.90;;;;;;5064056;28;20248;-77
2021/12/10 08:08:54;;;;;;;10.53;5.50;;;2.60;99.90;;;;;;5066880;28;20579;-76
2021/12/10 08:11:23;;;;;;;10.07;4.70;;;2.70;99.90;;;;;;5067822;28;20210;-77
2021/12/10 08:13:50;;;;;;;11.50;5.10;;;2.60;99.90;;;;;;5065996;28;20326;-76
2021/12/10 08:16:18;;;;;;;8.83;4.80;;;2.70;99.90;;;;;;5067688;28;20199;-77
2021/12/10 08:18:47;;;;;;;12.10;4.73;;;2.70;99.90;;;;;;5067924;28;20287;-76
2021/12/10 08:21:14;;;;;;;10.83;5.43;;;2.70;99.90;;;;;;5067182;28;20194;-76
2021/12/10 08:23:41;;;;;;;14.07;5.63;;;2.80;99.90;;;;;;5046051;28;20234;-76
2021/12/10 08:26:09;;;;;;;13.70;6.73;;;2.80;99.90;;;;;;5069722;28;20210;-75
2021/12/10 08:28:36;;;;;;;9.47;4.73;;;2.80;99.90;;;;;;5052126;28;20684;-77
2021/12/10 08:31:05;;;;;;;7.97;4.67;;;2.90;99.90;;;;;;5062156;28;20202;-77
2021/12/10 08:33:33;;;;;;;11.40;4.93;;;2.90;99.90;;;;;;5066516;28;20273;-76
2021/12/10 08:36:05;;;;;;;12.33;4.47;;;3.00;99.90;;;;;;5064716;28;20207;-77
2021/12/10 08:38:33;;;;;;;12.53;5.13;;;3.00;99.90;;;;;;5052260;28;20218;-76
2021/12/10 08:41:05;;;;;;;11.60;4.30;;;3.10;99.90;;;;;;5069194;28;20329;-76
2021/12/10 08:43:32;;;;;;;8.80;4.13;;;3.10;99.90;;;;;;5069501;28;20199;-75
2021/12/10 08:45:59;;;;;;;10.87;4.13;;;3.20;99.90;;;;;;5068110;28;20211;-75
2021/12/10 08:48:29;;;;;;;12.00;4.63;;;3.30;99.90;;;;;;5069584;28;20251;-76
2021/12/10 08:51:00;;;;;;;8.60;3.93;;;3.30;99.90;;;;;;5069358;28;20291;-76
2021/12/10 08:53:26;;;;;;;11.07;4.50;;;3.40;99.90;;;;;;5058519;28;20263;-76
2021/12/10 08:55:56;;;;;;;6.97;4.07;;;3.40;99.90;;;;;;5069331;28;20271;-76
2021/12/10 08:58:23;;;;;;;12.83;4.17;;;3.50;99.90;;;;;;5066541;28;20375;-77
2021/12/10 09:00:57;;;;;;;7.87;4.10;;;3.50;99.90;;;;;;5067781;28;20217;-76
2021/12/10 09:03:40;;;;;;;15.97;5.53;;;3.60;99.90;;;;;;5065517;28;20231;-75
2021/12/10 09:06:09;;;;;;;8.83;4.00;;;3.60;99.90;;;;;;5064988;28;20208;-76
2021/12/10 09:08:37;;;;;;;7.50;3.93;;;3.70;99.90;;;;;;5061890;28;20277;-76
2021/12/10 09:11:05;;;;;;;9.70;4.93;;;3.70;99.90;;;;;;5060482;28;20987;-76
2021/12/10 09:13:32;;;;;;;12.40;4.20;;;3.80;99.90;;;;;;5069227;28;20279;-76
2021/12/10 09:16:03;;;;;;;10.57;4.13;;;3.80;99.90;;;;;;5068670;28;20295;-77
2021/12/10 09:18:30;;;;;;;7.97;3.53;;;3.90;99.90;;;;;;5051462;28;20236;-77
2021/12/10 09:20:59;;;;;;;8.23;4.27;;;3.90;99.90;;;;;;5050408;28;20311;-75
2021/12/10 09:23:27;;;;;;;14.13;4.00;;;4.00;99.90;;;;;;5067684;28;20287;-76
2021/12/10 09:25:57;;;;;;;8.50;3.50;;;4.10;99.90;;;;;;5069088;28;20212;-76
2021/12/10 09:28:26;;;;;;;10.87;3.80;;;4.10;99.90;;;;;;5049555;28;20201;-78
2021/12/10 09:30:57;;;;;;;12.60;4.23;;;4.20;99.90;;;;;;5065846;28;20664;-77
2021/12/10 09:33:24;;;;;;;8.87;3.50;;;4.30;99.90;;;;;;5055080;28;20239;-78
2021/12/10 09:35:52;;;;;;;7.83;3.83;;;4.30;99.90;;;;;;5057014;28;20204;-75
2021/12/10 09:38:21;;;;;;;7.87;3.20;;;4.40;99.90;;;;;;5038160;28;20248;-77
2021/12/10 09:40:53;;;;;;;8.73;4.13;;;4.40;99.90;;;;;;5064063;28;20212;-76
2021/12/10 09:43:21;;;;;;;9.10;3.70;;;4.50;99.90;;;;;;5064324;28;20201;-76
2021/12/10 09:45:48;;;;;;;9.17;4.00;;;4.50;99.90;;;;;;5044804;28;20209;-77
2021/12/10 09:48:16;;;;;;;5.80;3.47;;;4.60;99.90;;;;;;5060677;28;20213;-76
2021/12/10 09:50:56;;;;;;;5.93;3.30;;;4.60;99.90;;;;;;5058328;28;20305;-76
2021/12/10 09:53:27;;;;;;;10.73;3.43;;;4.60;99.90;;;;;;5063374;28;20226;-77
2021/12/10 09:55:54;;;;;;;7.73;3.97;;;4.60;99.90;;;;;;5063585;28;20243;-77
2021/12/10 09:58:22;;;;;;;9.40;3.77;;;4.60;99.90;;;;;;5062264;28;20716;-74
2021/12/10 10:00:54;;;;;;;9.60;3.70;;;4.60;99.90;;;;;;5064678;28;20208;-75
2021/12/10 10:03:26;;;;;;;5.67;3.43;;;4.60;99.90;;;;;;5060671;28;20571;-75
2021/12/10 10:05:54;;;;;;;10.30;5.40;;;4.60;99.90;;;;;;5061540;28;20217;-74
2021/12/10 10:08:25;;;;;;;7.20;4.10;;;4.60;99.90;;;;;;5064472;28;20223;-76
2021/12/10 10:11:01;;;;;;;10.00;3.53;;;4.60;99.90;;;;;;5065264;28;20578;-75
2021/12/10 10:13:32;;;;;;;7.77;4.13;;;4.60;99.90;;;;;;5064790;28;20227;-75
2021/12/10 10:15:59;;;;;;;6.17;3.60;;;4.60;99.90;;;;;;5056467;28;20653;-75
2021/12/10 10:18:29;;;;;;;7.50;3.37;;;4.70;99.90;;;;;;5040058;28;20226;-76
2021/12/10 10:21:00;;;;;;;9.23;3.80;;;4.70;99.90;;;;;;5059458;28;20293;-76
2021/12/10 10:23:28;;;;;;;15.53;5.87;;;4.70;99.90;;;;;;5063568;28;20213;-75
2021/12/10 10:25:58;;;;;;;14.17;6.73;;;4.80;99.90;;;;;;5043146;28;20681;-75
2021/12/10 10:28:26;;;;;;;13.70;6.33;;;4.80;99.90;;;;;;5063764;28;20678;-77
2021/12/10 10:31:04;;;;;;;10.30;3.50;;;4.80;99.90;;;;;;5041667;28;20207;-75
2021/12/10 10:33:34;;;;;;;7.07;4.10;;;4.90;99.90;;;;;;5064691;28;20227;-75
2021/12/10 10:36:08;;;;;;;11.67;5.27;;;4.90;99.90;;;;;;5062192;28;20204;-76
2021/12/10 10:38:35;;;;;;;10.13;4.93;;;4.90;99.90;;;;;;5064704;28;20218;-74
2021/12/10 10:41:08;;;;;;;7.37;3.70;;;4.90;99.90;;;;;;5064133;28;20820;-75
2021/12/10 10:43:37;;;;;;;7.57;4.13;;;4.90;99.90;;;;;;5064533;28;20341;-75
2021/12/10 10:46:05;;;;;;;11.07;3.53;;;5.00;99.90;;;;;;5058221;28;20197;-75
2021/12/10 10:48:32;;;;;;;9.00;3.50;;;5.00;99.90;;;;;;5046876;28;20298;-74
2021/12/10 10:51:09;;;;;;;9.60;3.53;;;5.00;99.90;;;;;;5060644;28;20609;-75
2021/12/10 10:53:44;;;;;;;7.17;3.60;;;5.10;99.90;;;;;;5063434;28;20588;-76
2021/12/10 10:56:39;;;;;;;9.10;3.60;;;5.10;99.90;;;;;;5064001;28;20703;-76
2021/12/10 10:59:22;;;;;;;10.77;3.33;;;5.10;99.90;;;;;;5060192;28;20203;-74
2021/12/10 11:01:58;;;;;;;7.10;3.60;;;5.10;99.90;;;;;;5065041;28;20311;-75
2021/12/10 11:04:41;;;;;;;5.43;3.57;;;5.10;99.90;;;;;;5064031;28;20196;-75
2021/12/10 11:07:22;;;;;;;6.57;3.43;;;5.10;99.90;;;;;;5058093;28;20262;-75
2021/12/10 11:10:04;;;;;;;9.97;3.80;;;5.20;99.90;;;;;;5063875;28;20765;-75
2021/12/10 11:12:37;;;;;;;11.47;4.03;;;5.20;99.90;;;;;;5061819;28;20204;-74
2021/12/10 11:15:14;;;;;;;11.67;3.43;;;5.20;99.90;;;;;;5044088;28;20744;-75
2021/12/10 11:17:47;;;;;;;4.90;3.87;;;5.20;99.90;;;;;;5058111;28;20282;-76
2021/12/10 11:20:21;;;;;;;7.13;3.50;;;5.20;99.90;;;;;;5063464;28;20211;-77
2021/12/10 11:22:55;;;;;;;9.80;3.70;;;5.30;99.90;;;;;;5061077;28;20196;-75
2021/12/10 11:25:26;;;;;;;6.50;3.37;;;5.30;99.90;;;;;;5060364;28;20230;-75
2021/12/10 11:28:04;;;;;;;8.23;3.47;;;5.30;99.90;;;;;;5065030;28;20206;-76
2021/12/10 11:30:31;;;;;;;9.37;3.53;;;5.30;99.90;;;;;;5049879;28;20252;-75
2021/12/10 11:33:06;;;;;;;12.73;4.13;;;5.30;99.90;;;;;;5060087;28;20218;-74
2021/12/10 11:35:41;;;;;;;13.10;4.27;;;5.30;99.90;;;;;;5063669;28;20264;-75
2021/12/10 11:38:23;;;;;;;8.93;4.00;;;5.40;99.90;;;;;;5049896;28;20204;-76
2021/12/10 11:41:09;;;;;;;6.87;3.70;;;5.50;99.90;;;;;;5049038;28;20284;-76
2021/12/10 11:49:01;;;;;;;12.63;4.63;;;5.50;99.90;;;;;;5056131;28;20700;-75
2021/12/10 11:51:38;;;;;;;6.70;4.03;;;5.50;99.90;;;;;;5064423;28;20200;-77
2021/12/10 11:54:20;;;;;;;8.07;3.77;;;5.50;99.90;;;;;;5064460;28;20246;-76
2021/12/10 11:56:52;;;;;;;10.00;4.03;;;5.50;99.90;;;;;;5065737;28;20676;-76
2021/12/10 11:59:24;;;;;;;10.67;3.67;;;5.80;99.90;;;;;;5066185;28;20254;-76
2021/12/10 12:01:53;;;;;;;6.80;3.87;;;5.60;99.90;;;;;;5067553;28;20299;-78
2021/12/10 12:04:28;;;;;;;13.10;4.23;;;5.60;99.90;;;;;;5067083;28;20220;-76
2021/12/10 12:07:16;;;;;;;8.80;4.03;;;5.60;99.90;;;;;;5061556;28;20718;-75
2021/12/10 12:09:48;;;;;;;8.07;3.70;;;5.60;99.90;;;;;;5045135;28;20288;-77
2021/12/10 12:12:18;;;;;;;9.77;4.13;;;5.50;99.90;;;;;;5048333;28;20207;-75
2021/12/10 12:15:02;;;;;;;9.47;4.07;;;5.50;99.90;;;;;;5065426;28;20680;-77
2021/12/10 12:17:38;;;;;;;8.73;4.50;;;5.50;99.90;;;;;;5066897;28;20720;-75
2021/12/10 12:20:24;;;;;;;12.87;4.20;;;5.50;99.90;;;;;;5064599;28;20209;-77
2021/12/10 12:25:55;;;;;;;11.33;4.00;;;5.40;99.90;;;;;;5062425;28;20643;-78
2021/12/10 12:28:28;;;;;;;8.73;3.73;;;5.40;99.90;;;;;;5048482;28;20234;-76
2021/12/10 12:31:30;;;;;;;15.17;4.80;;;5.50;99.90;;;;;;5049693;28;20232;-76
2021/12/10 12:34:00;;;;;;;6.87;3.60;;;5.50;99.90;;;;;;5066391;28;20224;-78
2021/12/10 12:36:56;;;;;;;12.83;4.13;;;5.40;99.90;;;;;;5065281;28;20934;-77
2021/12/10 12:39:41;;;;;;;8.90;4.07;;;5.40;99.90;;;;;;5060289;28;20243;-76
2021/12/10 12:42:23;;;;;;;11.97;4.23;;;5.40;99.90;;;;;;5026394;28;20217;-76
2021/12/10 12:45:04;;;;;;;9.50;3.83;;;5.40;99.90;;;;;;5051370;28;20200;-76
2021/12/10 12:47:54;;;;;;;12.97;4.60;;;5.40;99.90;;;;;;5061660;28;20698;-76
2021/12/10 12:50:42;;;;;;;7.10;3.60;;;5.20;99.90;;;;;;5066695;28;20222;-79
2021/12/10 12:53:19;;;;;;;10.73;4.27;;;5.20;99.90;;;;;;5066250;28;20200;-76
2021/12/10 12:55:54;;;;;;;7.03;3.80;;;5.40;99.90;;;;;;5065333;28;20786;-75
2021/12/10 12:58:28;;;;;;;9.27;3.90;;;5.10;99.90;;;;;;5046588;28;20207;-76
2021/12/10 13:01:21;;;;;;;9.03;4.10;;;5.10;99.90;;;;;;5065772;28;20227;-77
2021/12/10 13:03:59;;;;;;;10.83;4.23;;;5.20;99.90;;;;;;5047097;28;20599;-76
2021/12/10 13:06:57;;;;;;;10.63;4.07;;;5.20;99.90;;;;;;5054696;28;20219;-78
2021/12/10 13:09:36;;;;;;;13.40;4.30;;;5.20;99.90;;;;;;5027797;28;20661;-76
2021/12/10 13:12:16;;;;;;;10.30;3.57;;;5.20;99.90;;;;;;5038682;28;20361;-77
2021/12/10 13:14:57;;;;;;;9.57;4.00;;;5.20;99.90;;;;;;5044840;28;20235;-78
2021/12/10 13:17:32;;;;;;;6.57;4.17;;;5.20;99.90;;;;;;5048043;28;20224;-75
2021/12/10 13:20:04;;;;;;;10.50;4.17;;;5.20;99.90;;;;;;5061879;28;20218;-77
2021/12/10 13:22:33;;;;;;;9.17;4.43;;;5.20;99.90;;;;;;5062354;28;20236;-77